Time;durP1;ratioP1;P1;durP2;ratioP2;P2;SDS_P1;SDS_P2;PMS_P1;PMS_P2;Temp;Humidity;BMP_temperature;BMP_pressure;BME280_temperature;BME280_humidity;BME280_pressure;Samples;Min_cycle;Max_cycle;Signal;HPM_P1;HPM_P2
2022/08/29 00:01:29;;;;;;;10.20;9.40;;;;;;;;;;5051292;28;20449;-78
2022/08/29 00:03:57;;;;;;;10.97;9.87;;;;;;;;;;5050908;28;20886;-75
2022/08/29 00:06:24;;;;;;;10.53;9.53;;;;;;;;;;5051221;28;20469;-78
2022/08/29 00:08:51;;;;;;;11.80;10.90;;;;;;;;;;5050941;28;20446;-77
2022/08/29 00:11:18;;;;;;;10.70;9.80;;;;;;;;;;5050830;28;20856;-77
2022/08/29 00:13:45;;;;;;;10.37;9.50;;;;;;;;;;5050473;28;20517;-76
2022/08/29 00:16:12;;;;;;;10.60;9.67;;;;;;;;;;5050358;28;20469;-76
2022/08/29 00:18:41;;;;;;;11.00;10.00;;;;;;;;;;5050635;28;20853;-77
2022/08/29 00:21:08;;;;;;;9.80;9.00;;;;;;;;;;5050405;28;20448;-78
2022/08/29 00:23:35;;;;;;;10.13;9.20;;;;;;;;;;5050056;28;20485;-77
2022/08/29 00:26:02;;;;;;;10.90;9.80;;;;;;;;;;5050835;28;21112;-77
2022/08/29 00:28:29;;;;;;;9.30;8.60;;;;;;;;;;5050458;28;20499;-77
2022/08/29 00:30:56;;;;;;;10.33;9.23;;;;;;;;;;5050514;28;20438;-76
2022/08/29 00:33:23;;;;;;;10.20;9.30;;;;;;;;;;5050155;28;20519;-76
2022/08/29 00:35:51;;;;;;;10.77;9.40;;;;;;;;;;5050488;28;20449;-77
2022/08/29 00:38:18;;;;;;;11.10;9.97;;;;;;;;;;5050249;28;20532;-76
2022/08/29 00:40:47;;;;;;;10.50;9.70;;;;;;;;;;5050165;28;20457;-77
2022/08/29 00:43:14;;;;;;;10.40;9.50;;;;;;;;;;5050004;28;20530;-78
2022/08/29 00:45:47;;;;;;;10.77;9.77;;;;;;;;;;5049892;28;20468;-75
2022/08/29 00:48:15;;;;;;;10.90;10.10;;;;;;;;;;5050302;28;20441;-76
2022/08/29 00:50:47;;;;;;;10.70;9.90;;;;;;;;;;5050689;28;20812;-76
2022/08/29 00:53:17;;;;;;;10.70;9.80;;;;;;;;;;5051610;28;20860;-76
2022/08/29 00:55:45;;;;;;;10.50;9.40;;;;;;;;;;5051830;28;20446;-77
2022/08/29 00:58:15;;;;;;;11.47;10.57;;;;;;;;;;5051500;28;20441;-76
2022/08/29 01:00:42;;;;;;;11.47;10.10;;;;;;;;;;5051953;28;20867;-76
2022/08/29 01:03:09;;;;;;;10.50;9.60;;;;;;;;;;5068594;28;20481;-76
2022/08/29 01:05:36;;;;;;;11.50;10.37;;;;;;;;;;5073468;28;20448;-77
2022/08/29 01:08:04;;;;;;;11.30;10.30;;;;;;;;;;5072146;28;20472;-77
2022/08/29 01:13:18;;;;;;;9.87;9.10;;;;;;;;;;5071143;28;20425;-77
2022/08/29 01:15:45;;;;;;;9.70;9.00;;;;;;;;;;5052284;28;20949;-77
2022/08/29 01:18:15;;;;;;;10.17;9.47;;;;;;;;;;5052245;28;20873;-76
2022/08/29 01:20:48;;;;;;;9.60;8.70;;;;;;;;;;5064903;28;20521;-76
2022/08/29 01:23:19;;;;;;;11.30;10.43;;;;;;;;;;5057172;28;20473;-76
2022/08/29 01:25:48;;;;;;;11.23;10.23;;;;;;;;;;5053838;28;20495;-77
2022/08/29 01:28:17;;;;;;;12.07;10.87;;;;;;;;;;5053309;28;20503;-76
2022/08/29 01:30:58;;;;;;;10.07;9.37;;;;;;;;;;5056812;28;20473;-76
2022/08/29 01:33:25;;;;;;;10.57;9.73;;;;;;;;;;5058724;28;20433;-77
2022/08/29 01:35:52;;;;;;;12.40;11.20;;;;;;;;;;5055914;28;20476;-76
2022/08/29 01:38:26;;;;;;;11.37;10.30;;;;;;;;;;5059119;28;20523;-75
2022/08/29 01:40:55;;;;;;;11.60;10.47;;;;;;;;;;5056282;28;20480;-76
2022/08/29 01:43:22;;;;;;;12.00;11.07;;;;;;;;;;5052963;28;20477;-76
2022/08/29 01:45:49;;;;;;;13.10;10.97;;;;;;;;;;5052903;28;20528;-76
2022/08/29 01:48:16;;;;;;;11.30;10.40;;;;;;;;;;5053495;28;20616;-77
2022/08/29 01:50:45;;;;;;;10.43;9.63;;;;;;;;;;5053173;28;20531;-76
2022/08/29 01:53:12;;;;;;;10.90;10.07;;;;;;;;;;5052897;28;20491;-77
2022/08/29 01:55:39;;;;;;;11.90;10.90;;;;;;;;;;5052943;28;20460;-76
2022/08/29 01:58:08;;;;;;;11.33;10.43;;;;;;;;;;5053825;28;20454;-77
2022/08/29 02:00:35;;;;;;;11.47;10.27;;;;;;;;;;5055143;28;20471;-76
2022/08/29 02:03:02;;;;;;;11.50;10.43;;;;;;;;;;5053633;28;21007;-77
2022/08/29 02:05:30;;;;;;;11.43;10.43;;;;;;;;;;5052885;28;20442;-77
2022/08/29 02:07:57;;;;;;;11.40;10.47;;;;;;;;;;5052843;28;20441;-77
2022/08/29 02:10:24;;;;;;;11.77;10.87;;;;;;;;;;5053123;28;20523;-77
2022/08/29 02:12:52;;;;;;;11.27;10.33;;;;;;;;;;5052456;28;20441;-77
2022/08/29 02:15:21;;;;;;;11.40;10.50;;;;;;;;;;5052435;28;20468;-76
2022/08/29 02:17:48;;;;;;;11.40;10.60;;;;;;;;;;5052720;28;20552;-76
2022/08/29 02:20:15;;;;;;;10.93;10.03;;;;;;;;;;5053482;28;20528;-76
2022/08/29 02:22:42;;;;;;;11.80;10.60;;;;;;;;;;5054264;28;20456;-77
2022/08/29 02:27:51;;;;;;;11.33;10.33;;;;;;;;;;5052285;28;20496;-76
2022/08/29 02:30:21;;;;;;;11.53;10.60;;;;;;;;;;5051133;28;20469;-76
2022/08/29 02:32:49;;;;;;;10.23;9.30;;;;;;;;;;5052085;28;20442;-76
2022/08/29 02:35:16;;;;;;;11.23;10.17;;;;;;;;;;5052495;28;20544;-76
2022/08/29 02:37:43;;;;;;;11.73;10.83;;;;;;;;;;5052105;28;21144;-76
2022/08/29 02:40:11;;;;;;;12.30;11.30;;;;;;;;;;5052306;28;20438;-76
2022/08/29 02:42:38;;;;;;;11.40;10.50;;;;;;;;;;5052029;28;20449;-76
2022/08/29 02:45:05;;;;;;;11.40;10.30;;;;;;;;;;5052625;28;20508;-76
2022/08/29 02:47:35;;;;;;;11.47;10.67;;;;;;;;;;5069057;28;20569;-76
2022/08/29 02:50:03;;;;;;;11.43;10.40;;;;;;;;;;5074798;28;20450;-76
2022/08/29 02:52:30;;;;;;;11.07;10.00;;;;;;;;;;5073147;28;20495;-77
2022/08/29 02:54:57;;;;;;;11.47;10.33;;;;;;;;;;5073117;28;20449;-76
2022/08/29 02:57:24;;;;;;;11.73;10.73;;;;;;;;;;5074087;28;20512;-76
2022/08/29 02:59:51;;;;;;;11.10;10.00;;;;;;;;;;5056614;28;20445;-77
2022/08/29 03:02:19;;;;;;;12.00;10.80;;;;;;;;;;5053272;28;20445;-77
2022/08/29 03:04:47;;;;;;;11.03;10.13;;;;;;;;;;5055159;28;20499;-75
2022/08/29 03:07:15;;;;;;;11.57;9.70;;;;;;;;;;5061405;28;20476;-75
2022/08/29 03:09:42;;;;;;;12.20;11.00;;;;;;;;;;5064155;28;20446;-75
2022/08/29 03:12:09;;;;;;;11.30;10.50;;;;;;;;;;5076049;28;20444;-76
2022/08/29 03:14:38;;;;;;;11.27;10.20;;;;;;;;;;5075113;28;20955;-77
2022/08/29 03:17:05;;;;;;;11.13;10.23;;;;;;;;;;5066249;28;20474;-76
2022/08/29 03:19:32;;;;;;;15.07;10.40;;;;;;;;;;5053296;28;20457;-76
2022/08/29 03:22:00;;;;;;;10.47;9.67;;;;;;;;;;5052145;28;20450;-76
2022/08/29 03:24:27;;;;;;;11.53;10.43;;;;;;;;;;5052153;28;20883;-77
2022/08/29 03:26:55;;;;;;;12.67;10.70;;;;;;;;;;5054205;28;21289;-76
2022/08/29 03:29:22;;;;;;;10.43;9.60;;;;;;;;;;5055651;28;20537;-76
2022/08/29 03:31:49;;;;;;;10.97;10.03;;;;;;;;;;5051533;28;20541;-76
2022/08/29 03:34:16;;;;;;;11.43;10.27;;;;;;;;;;5051401;28;20487;-76
2022/08/29 03:36:43;;;;;;;11.33;10.33;;;;;;;;;;5051666;28;20465;-76
2022/08/29 03:39:12;;;;;;;11.73;10.60;;;;;;;;;;5051496;28;20534;-77
2022/08/29 03:41:39;;;;;;;11.00;10.13;;;;;;;;;;5054561;28;20934;-74
2022/08/29 03:44:06;;;;;;;10.70;9.73;;;;;;;;;;5052491;28;20527;-76
2022/08/29 03:46:34;;;;;;;12.10;10.57;;;;;;;;;;5050989;28;20481;-77
2022/08/29 03:49:01;;;;;;;11.17;10.27;;;;;;;;;;5051531;28;20890;-76
2022/08/29 03:51:30;;;;;;;11.10;10.00;;;;;;;;;;5050828;28;20938;-75
2022/08/29 03:53:57;;;;;;;9.80;9.00;;;;;;;;;;5051234;28;20530;-77
2022/08/29 03:56:25;;;;;;;10.17;9.23;;;;;;;;;;5051280;28;20465;-76
2022/08/29 03:58:53;;;;;;;9.93;9.10;;;;;;;;;;5055431;28;20567;-75
2022/08/29 04:01:21;;;;;;;10.70;9.70;;;;;;;;;;5053815;28;20453;-76
2022/08/29 04:03:48;;;;;;;15.53;9.77;;;;;;;;;;5051579;28;20933;-76
2022/08/29 04:06:15;;;;;;;10.03;9.13;;;;;;;;;;5050600;28;20461;-77
2022/08/29 04:08:42;;;;;;;10.67;8.90;;;;;;;;;;5051078;28;20544;-76
2022/08/29 04:11:10;;;;;;;8.50;7.70;;;;;;;;;;5055394;28;20505;-76
2022/08/29 04:13:38;;;;;;;9.07;8.13;;;;;;;;;;5059686;28;20473;-76
2022/08/29 04:16:09;;;;;;;10.10;9.10;;;;;;;;;;5059697;28;20470;-76
2022/08/29 04:18:36;;;;;;;9.07;8.47;;;;;;;;;;5058304;28;20470;-76
2022/08/29 04:21:04;;;;;;;8.83;8.00;;;;;;;;;;5058251;28;20508;-75
2022/08/29 04:23:31;;;;;;;10.33;9.43;;;;;;;;;;5058391;28;20504;-75
2022/08/29 04:25:58;;;;;;;11.13;9.77;;;;;;;;;;5058918;28;20575;-76
2022/08/29 04:28:25;;;;;;;10.00;8.87;;;;;;;;;;5055073;28;20442;-76
2022/08/29 04:30:54;;;;;;;9.30;8.47;;;;;;;;;;5050625;28;20441;-76
2022/08/29 04:33:22;;;;;;;10.90;8.43;;;;;;;;;;5072652;28;20456;-76
2022/08/29 04:35:49;;;;;;;10.43;9.50;;;;;;;;;;5075617;28;20418;-77
2022/08/29 04:38:16;;;;;;;10.00;9.10;;;;;;;;;;5075909;28;20441;-77
2022/08/29 04:40:43;;;;;;;9.80;8.90;;;;;;;;;;5075253;28;20429;-76
2022/08/29 04:43:10;;;;;;;9.03;8.23;;;;;;;;;;5075745;28;20437;-76
2022/08/29 04:45:39;;;;;;;9.60;8.67;;;;;;;;;;5075095;28;20486;-75
2022/08/29 04:48:09;;;;;;;9.20;8.30;;;;;;;;;;5075458;28;20426;-76
2022/08/29 04:50:36;;;;;;;10.40;9.50;;;;;;;;;;5072947;28;20432;-75
2022/08/29 04:53:03;;;;;;;9.90;9.00;;;;;;;;;;5076115;28;20445;-75
2022/08/29 04:55:31;;;;;;;9.67;8.67;;;;;;;;;;5065966;28;20437;-76
2022/08/29 04:57:58;;;;;;;9.90;9.00;;;;;;;;;;5061610;28;20449;-76
2022/08/29 05:00:27;;;;;;;9.70;8.90;;;;;;;;;;5062431;28;20449;-76
2022/08/29 05:02:54;;;;;;;10.10;8.73;;;;;;;;;;5071335;28;20483;-75
2022/08/29 05:05:23;;;;;;;9.10;8.30;;;;;;;;;;5077449;28;20531;-76
2022/08/29 05:07:50;;;;;;;13.70;11.90;;;;;;;;;;5079863;28;20465;-75
2022/08/29 05:10:17;;;;;;;9.77;8.70;;;;;;;;;;5078989;28;20437;-76
2022/08/29 05:12:45;;;;;;;9.10;8.20;;;;;;;;;;5080024;28;20442;-75
2022/08/29 05:15:12;;;;;;;8.27;7.57;;;;;;;;;;5079637;28;20452;-76
2022/08/29 05:17:39;;;;;;;8.10;7.50;;;;;;;;;;5079240;28;20461;-76
2022/08/29 05:20:07;;;;;;;9.67;8.30;;;;;;;;;;5079326;28;20464;-76
2022/08/29 05:22:36;;;;;;;9.47;7.20;;;;;;;;;;5077509;28;20444;-74
2022/08/29 05:25:03;;;;;;;9.97;8.27;;;;;;;;;;5074292;28;20453;-76
2022/08/29 05:27:30;;;;;;;9.67;8.67;;;;;;;;;;5078283;28;20525;-76
2022/08/29 05:29:58;;;;;;;12.97;9.30;;;;;;;;;;5066431;28;20442;-76
2022/08/29 05:32:25;;;;;;;9.43;8.40;;;;;;;;;;5060886;28;20445;-76
2022/08/29 05:34:52;;;;;;;9.17;8.27;;;;;;;;;;5061565;28;20437;-76
2022/08/29 05:37:20;;;;;;;8.83;7.93;;;;;;;;;;5058084;28;20461;-76
2022/08/29 05:39:49;;;;;;;9.63;8.63;;;;;;;;;;5059881;28;20442;-77
2022/08/29 05:42:18;;;;;;;8.37;7.63;;;;;;;;;;5058950;28;20453;-78
2022/08/29 05:44:45;;;;;;;10.80;8.30;;;;;;;;;;5059438;28;20832;-76
2022/08/29 05:47:14;;;;;;;11.43;8.97;;;;;;;;;;5058790;28;20530;-77
2022/08/29 05:49:42;;;;;;;9.90;9.00;;;;;;;;;;5057698;28;20442;-75
2022/08/29 05:52:09;;;;;;;10.13;8.90;;;;;;;;;;5057994;28;20445;-76
2022/08/29 05:54:38;;;;;;;11.73;9.27;;;;;;;;;;5057581;28;20449;-76
2022/08/29 05:57:07;;;;;;;9.60;8.70;;;;;;;;;;5054858;28;20988;-77
2022/08/29 05:59:35;;;;;;;9.23;8.27;;;;;;;;;;5056699;28;20497;-77
2022/08/29 06:02:02;;;;;;;12.63;9.43;;;;;;;;;;5055950;28;20521;-76
2022/08/29 06:04:29;;;;;;;10.33;9.20;;;;;;;;;;5054769;28;20681;-76
2022/08/29 06:06:56;;;;;;;10.83;9.73;;;;;;;;;;5055197;28;20496;-75
2022/08/29 06:09:23;;;;;;;9.30;8.40;;;;;;;;;;5056474;28;20464;-75
2022/08/29 06:11:51;;;;;;;9.80;8.80;;;;;;;;;;5057254;28;20434;-77
2022/08/29 06:14:20;;;;;;;9.33;8.40;;;;;;;;;;5055773;28;20507;-76
2022/08/29 06:16:47;;;;;;;9.50;8.60;;;;;;;;;;5055828;28;20470;-76
2022/08/29 06:19:15;;;;;;;16.20;9.13;;;;;;;;;;5054690;28;20472;-75
2022/08/29 06:21:42;;;;;;;10.50;9.50;;;;;;;;;;5055135;28;20449;-76
2022/08/29 06:24:09;;;;;;;12.80;9.13;;;;;;;;;;5055439;28;20627;-76
2022/08/29 06:26:36;;;;;;;11.07;9.97;;;;;;;;;;5056854;28;20473;-76
2022/08/29 06:29:05;;;;;;;9.70;8.80;;;;;;;;;;5057040;28;20476;-77
2022/08/29 06:31:33;;;;;;;9.77;8.97;;;;;;;;;;5057004;28;20532;-75
2022/08/29 06:34:01;;;;;;;9.13;8.33;;;;;;;;;;5055805;28;20441;-75
2022/08/29 06:36:29;;;;;;;10.10;9.20;;;;;;;;;;5058244;28;20516;-76
2022/08/29 06:38:56;;;;;;;9.20;8.00;;;;;;;;;;5059390;28;20453;-76
2022/08/29 06:41:23;;;;;;;8.30;7.53;;;;;;;;;;5059144;28;20442;-76
2022/08/29 06:43:50;;;;;;;7.70;6.90;;;;;;;;;;5058975;28;20483;-76
2022/08/29 06:46:20;;;;;;;8.60;7.80;;;;;;;;;;5059379;28;20469;-77
2022/08/29 06:48:49;;;;;;;9.47;8.20;;;;;;;;;;5064493;28;20450;-76
2022/08/29 06:51:16;;;;;;;8.73;7.40;;;;;;;;;;5058668;28;20464;-76
2022/08/29 06:53:43;;;;;;;9.27;7.43;;;;;;;;;;5058871;28;20449;-77
2022/08/29 06:56:10;;;;;;;9.23;8.20;;;;;;;;;;5060314;28;20465;-76
2022/08/29 06:58:37;;;;;;;8.77;7.97;;;;;;;;;;5065158;28;20566;-76
2022/08/29 07:01:07;;;;;;;12.77;7.90;;;;;;;;;;5057887;28;20446;-76
2022/08/29 07:06:36;;;;;;;11.47;10.33;;;;;;;;;;5057264;28;20552;-77
2022/08/29 07:09:06;;;;;;;9.30;7.80;;;;;;;;;;5063091;28;20489;-78
2022/08/29 07:11:36;;;;;;;8.63;7.67;;;;;;;;;;5068406;28;20447;-77
2022/08/29 07:14:03;;;;;;;10.60;9.43;;;;;;;;;;5063485;28;20438;-75
2022/08/29 07:16:31;;;;;;;10.13;9.13;;;;;;;;;;5070662;28;20445;-76
2022/08/29 07:18:58;;;;;;;10.20;9.20;;;;;;;;;;5062639;28;20499;-76
2022/08/29 07:21:27;;;;;;;10.57;9.50;;;;;;;;;;5061563;28;20491;-76
2022/08/29 07:23:55;;;;;;;10.37;9.37;;;;;;;;;;5064984;28;20457;-77
2022/08/29 07:26:23;;;;;;;10.60;9.50;;;;;;;;;;5059095;28;20507;-76
2022/08/29 07:29:07;;;;;;;9.50;8.60;;;;;;;;;;5063521;28;20963;-77
2022/08/29 07:31:35;;;;;;;9.73;8.73;;;;;;;;;;5062582;28;20825;-77
2022/08/29 07:34:04;;;;;;;11.97;10.30;;;;;;;;;;5065113;28;20445;-77
2022/08/29 07:36:32;;;;;;;11.97;9.50;;;;;;;;;;5070585;28;20449;-76
2022/08/29 07:39:01;;;;;;;10.57;9.67;;;;;;;;;;5075947;28;20452;-77
2022/08/29 07:41:28;;;;;;;11.47;10.37;;;;;;;;;;5076301;28;20438;-77
2022/08/29 07:43:55;;;;;;;11.83;10.60;;;;;;;;;;5072057;28;20465;-76
2022/08/29 07:46:24;;;;;;;11.00;10.00;;;;;;;;;;5070098;28;20485;-76
2022/08/29 07:48:51;;;;;;;10.93;9.87;;;;;;;;;;5072846;28;20509;-76
2022/08/29 07:51:20;;;;;;;11.90;10.90;;;;;;;;;;5069787;28;20519;-77
2022/08/29 07:53:47;;;;;;;11.60;10.60;;;;;;;;;;5072725;28;20442;-76
2022/08/29 07:56:16;;;;;;;13.30;10.33;;;;;;;;;;5071337;28;20461;-76
2022/08/29 07:58:43;;;;;;;11.63;10.50;;;;;;;;;;5071342;28;20464;-76
2022/08/29 08:01:11;;;;;;;11.57;10.37;;;;;;;;;;5070013;28;20457;-76
2022/08/29 08:03:38;;;;;;;13.63;9.70;;;;;;;;;;5064769;28;20430;-76
2022/08/29 08:06:05;;;;;;;11.30;10.30;;;;;;;;;;5073691;28;20477;-76
2022/08/29 08:08:32;;;;;;;10.97;9.87;;;;;;;;;;5074191;28;20434;-76
2022/08/29 08:10:59;;;;;;;11.33;10.23;;;;;;;;;;5065902;28;20456;-78
2022/08/29 08:13:28;;;;;;;9.97;8.90;;;;;;;;;;5068462;28;20453;-77
2022/08/29 08:15:55;;;;;;;11.03;9.77;;;;;;;;;;5060909;28;20453;-77
2022/08/29 08:18:22;;;;;;;10.77;9.33;;;;;;;;;;5062089;28;20548;-78
2022/08/29 08:20:49;;;;;;;10.70;9.67;;;;;;;;;;5062591;28;20467;-78
2022/08/29 08:23:16;;;;;;;11.87;10.47;;;;;;;;;;5073644;28;20479;-76
2022/08/29 08:25:43;;;;;;;10.17;9.30;;;;;;;;;;5075238;28;20457;-77
2022/08/29 08:28:10;;;;;;;10.20;9.27;;;;;;;;;;5074266;28;20455;-76
2022/08/29 08:30:39;;;;;;;12.37;10.03;;;;;;;;;;5074224;28;20426;-78
2022/08/29 08:33:06;;;;;;;12.13;9.20;;;;;;;;;;5074757;28;20421;-77
2022/08/29 08:35:34;;;;;;;10.53;9.53;;;;;;;;;;5075551;28;20430;-78
2022/08/29 08:38:01;;;;;;;9.60;8.73;;;;;;;;;;5075260;28;20500;-77
2022/08/29 08:40:29;;;;;;;11.07;10.07;;;;;;;;;;5074927;28;20445;-77
2022/08/29 08:42:59;;;;;;;9.83;8.93;;;;;;;;;;5074670;28;20422;-77
2022/08/29 08:45:28;;;;;;;11.03;9.17;;;;;;;;;;5074758;28;20503;-77
2022/08/29 08:48:00;;;;;;;10.67;9.20;;;;;;;;;;5065974;28;20910;-77
2022/08/29 08:50:31;;;;;;;10.33;9.43;;;;;;;;;;5066290;28;20441;-76
2022/08/29 08:53:00;;;;;;;9.80;9.00;;;;;;;;;;5062393;28;20669;-76
2022/08/29 08:55:29;;;;;;;11.30;9.23;;;;;;;;;;5068661;28;20456;-76
2022/08/29 08:58:02;;;;;;;8.53;7.83;;;;;;;;;;5069088;28;20462;-76
2022/08/29 09:00:31;;;;;;;10.17;9.23;;;;;;;;;;5069901;28;20452;-77
2022/08/29 09:03:04;;;;;;;9.63;8.00;;;;;;;;;;5065250;28;20434;-76
2022/08/29 09:05:37;;;;;;;9.63;8.77;;;;;;;;;;5064298;28;20473;-77
2022/08/29 09:08:08;;;;;;;12.93;9.57;;;;;;;;;;5071255;28;20444;-77
2022/08/29 09:10:42;;;;;;;8.53;7.67;;;;;;;;;;5074454;28;20446;-77
2022/08/29 09:13:14;;;;;;;9.00;8.07;;;;;;;;;;5074583;28;20441;-76
2022/08/29 09:15:42;;;;;;;9.50;8.70;;;;;;;;;;5054578;28;20426;-77
2022/08/29 09:18:12;;;;;;;9.77;9.07;;;;;;;;;;5070605;28;20476;-77
2022/08/29 09:20:40;;;;;;;9.13;8.10;;;;;;;;;;5074549;28;20464;-76
2022/08/29 09:23:11;;;;;;;8.40;7.60;;;;;;;;;;5073460;28;20467;-75
2022/08/29 09:25:38;;;;;;;8.90;7.30;;;;;;;;;;5068832;28;20503;-75
2022/08/29 09:28:06;;;;;;;8.10;7.50;;;;;;;;;;5069971;28;20500;-77
2022/08/29 09:30:35;;;;;;;8.50;7.70;;;;;;;;;;5071346;28;20460;-76
2022/08/29 09:33:04;;;;;;;8.80;7.57;;;;;;;;;;5070616;28;20442;-76
2022/08/29 09:35:35;;;;;;;8.63;7.93;;;;;;;;;;5070429;28;20491;-77
2022/08/29 09:38:04;;;;;;;8.20;7.40;;;;;;;;;;5065104;28;20524;-77
2022/08/29 09:40:42;;;;;;;9.30;7.60;;;;;;;;;;5068888;28;20450;-75
2022/08/29 09:43:16;;;;;;;7.73;7.03;;;;;;;;;;5064829;28;20445;-78
2022/08/29 09:46:01;;;;;;;8.53;7.70;;;;;;;;;;5069959;28;20516;-76
2022/08/29 09:48:30;;;;;;;10.00;8.00;;;;;;;;;;5071011;28;20436;-75
2022/08/29 09:51:08;;;;;;;7.77;7.17;;;;;;;;;;5070709;28;20433;-76
2022/08/29 09:53:36;;;;;;;10.30;6.63;;;;;;;;;;5064798;28;20472;-75
2022/08/29 09:56:05;;;;;;;8.53;6.50;;;;;;;;;;5065957;28;20496;-76
2022/08/29 09:58:34;;;;;;;7.60;6.83;;;;;;;;;;5067069;28;20453;-77
2022/08/29 10:01:02;;;;;;;8.40;6.80;;;;;;;;;;5063216;28;20457;-76
2022/08/29 10:03:31;;;;;;;8.00;6.67;;;;;;;;;;5073963;28;20535;-78
2022/08/29 10:06:07;;;;;;;7.40;6.70;;;;;;;;;;5076456;28;20505;-77
2022/08/29 10:08:36;;;;;;;7.73;7.13;;;;;;;;;;5076606;28;20454;-77
2022/08/29 10:11:04;;;;;;;8.07;7.30;;;;;;;;;;5070471;28;20445;-77
2022/08/29 10:13:36;;;;;;;7.30;6.63;;;;;;;;;;5054871;28;20449;-77
2022/08/29 10:16:07;;;;;;;7.23;6.70;;;;;;;;;;5053882;28;20466;-76
2022/08/29 10:18:41;;;;;;;7.33;6.60;;;;;;;;;;5053331;28;20854;-76
2022/08/29 10:21:16;;;;;;;7.90;7.30;;;;;;;;;;5053441;28;20450;-77
2022/08/29 10:23:54;;;;;;;6.57;5.77;;;;;;;;;;5059471;28;21006;-76
2022/08/29 10:26:30;;;;;;;7.67;7.00;;;;;;;;;;5051739;28;20660;-78
2022/08/29 10:29:02;;;;;;;8.23;7.50;;;;;;;;;;5057126;28;20789;-77
2022/08/29 10:31:38;;;;;;;7.00;6.40;;;;;;;;;;5050355;28;20442;-77
2022/08/29 10:34:13;;;;;;;7.70;7.10;;;;;;;;;;5056579;28;20941;-80
2022/08/29 10:36:44;;;;;;;6.30;5.70;;;;;;;;;;5056822;28;20453;-78
2022/08/29 10:39:13;;;;;;;7.43;5.57;;;;;;;;;;5058732;28;20465;-78
2022/08/29 10:41:51;;;;;;;6.30;5.80;;;;;;;;;;5060736;28;21218;-79
2022/08/29 10:44:23;;;;;;;6.70;6.07;;;;;;;;;;5058289;28;20437;-79
2022/08/29 10:46:57;;;;;;;7.33;5.30;;;;;;;;;;5059995;28;20556;-78
2022/08/29 10:49:31;;;;;;;6.40;5.80;;;;;;;;;;5056692;28;20523;-77
2022/08/29 10:52:04;;;;;;;5.00;4.70;;;;;;;;;;5056678;28;20422;-77
2022/08/29 10:54:37;;;;;;;5.57;5.17;;;;;;;;;;5060097;28;20967;-76
2022/08/29 10:57:05;;;;;;;6.13;5.63;;;;;;;;;;5058897;28;20618;-76
2022/08/29 10:59:36;;;;;;;6.10;5.57;;;;;;;;;;5059406;28;20972;-77
2022/08/29 11:02:07;;;;;;;5.57;5.13;;;;;;;;;;5056318;28;20454;-77
2022/08/29 11:04:37;;;;;;;5.27;4.90;;;;;;;;;;5053143;28;20446;-76
2022/08/29 11:07:08;;;;;;;5.07;4.60;;;;;;;;;;5052862;28;20488;-77
2022/08/29 11:09:37;;;;;;;6.73;5.40;;;;;;;;;;5055818;28;20874;-76
2022/08/29 11:12:07;;;;;;;8.00;5.43;;;;;;;;;;5054321;28;20438;-77
2022/08/29 11:14:36;;;;;;;6.70;4.43;;;;;;;;;;5061386;28;20493;-76
2022/08/29 11:17:04;;;;;;;5.57;4.97;;;;;;;;;;5063931;28;20457;-76
2022/08/29 11:19:34;;;;;;;8.80;6.10;;;;;;;;;;5059473;28;20460;-76
2022/08/29 11:22:03;;;;;;;5.43;5.03;;;;;;;;;;5065949;28;20468;-77
2022/08/29 11:24:34;;;;;;;5.70;5.20;;;;;;;;;;5073281;28;20500;-76
2022/08/29 11:27:05;;;;;;;5.87;5.37;;;;;;;;;;5072456;28;20601;-76
2022/08/29 11:29:39;;;;;;;4.90;4.60;;;;;;;;;;5061061;28;20458;-75
2022/08/29 11:32:09;;;;;;;5.63;4.67;;;;;;;;;;5056372;28;20881;-76
2022/08/29 11:34:46;;;;;;;5.20;4.73;;;;;;;;;;5055688;28;20869;-76
2022/08/29 11:37:21;;;;;;;5.53;5.13;;;;;;;;;;5066101;28;20483;-76
2022/08/29 11:39:57;;;;;;;5.37;4.97;;;;;;;;;;5067561;28;20437;-76
2022/08/29 11:42:27;;;;;;;7.47;5.57;;;;;;;;;;5074518;28;20444;-76
2022/08/29 11:44:56;;;;;;;6.17;5.67;;;;;;;;;;5062391;28;20453;-74
2022/08/29 11:47:42;;;;;;;5.37;4.97;;;;;;;;;;5058657;28;20505;-74
2022/08/29 11:50:28;;;;;;;4.87;4.47;;;;;;;;;;5063451;28;20509;-76
2022/08/29 11:53:17;;;;;;;5.50;4.63;;;;;;;;;;5060196;28;20495;-75
2022/08/29 11:55:46;;;;;;;4.90;4.50;;;;;;;;;;5049929;28;20983;-77
2022/08/29 11:58:31;;;;;;;5.23;4.73;;;;;;;;;;5044970;28;20446;-76
2022/08/29 12:00:59;;;;;;;4.30;4.00;;;;;;;;;;5031751;28;20446;-76
2022/08/29 12:03:56;;;;;;;7.33;4.40;;;;;;;;;;5049065;28;20474;-75
2022/08/29 12:06:37;;;;;;;5.17;4.67;;;;;;;;;;5047593;28;21000;-77
2022/08/29 12:09:17;;;;;;;4.93;4.50;;;;;;;;;;5050518;28;20462;-76
2022/08/29 12:12:03;;;;;;;5.20;4.80;;;;;;;;;;5050968;28;20449;-76
2022/08/29 12:14:34;;;;;;;5.17;4.67;;;;;;;;;;5050796;28;20449;-76
2022/08/29 12:17:02;;;;;;;8.27;5.00;;;;;;;;;;5050441;28;20974;-76
2022/08/29 12:19:45;;;;;;;4.87;4.53;;;;;;;;;;5051533;28;20512;-76
2022/08/29 12:22:32;;;;;;;5.47;4.97;;;;;;;;;;5050910;28;20437;-75
2022/08/29 12:25:21;;;;;;;6.87;4.80;;;;;;;;;;5050865;28;20507;-75
2022/08/29 12:27:59;;;;;;;6.27;5.00;;;;;;;;;;5051104;28;20562;-76
2022/08/29 12:30:27;;;;;;;5.43;4.63;;;;;;;;;;5050337;28;20448;-74
2022/08/29 12:32:58;;;;;;;5.27;4.80;;;;;;;;;;5048836;28;20592;-75
2022/08/29 12:35:32;;;;;;;5.20;4.80;;;;;;;;;;5050389;28;20437;-76
2022/08/29 12:38:05;;;;;;;4.93;4.50;;;;;;;;;;5050458;28;20434;-76
2022/08/29 12:40:45;;;;;;;5.60;4.53;;;;;;;;;;5050487;28;20449;-76
2022/08/29 12:43:26;;;;;;;5.23;4.73;;;;;;;;;;5050350;28;20441;-77
2022/08/29 12:45:54;;;;;;;4.50;4.10;;;;;;;;;;5050201;28;20453;-76
2022/08/29 12:48:24;;;;;;;6.23;4.87;;;;;;;;;;5050649;28;20503;-76
2022/08/29 12:50:53;;;;;;;4.80;4.50;;;;;;;;;;5051157;28;20433;-76
2022/08/29 12:53:22;;;;;;;5.63;4.90;;;;;;;;;;5052981;28;20519;-77
2022/08/29 12:55:52;;;;;;;4.00;3.70;;;;;;;;;;5070974;28;20453;-76
2022/08/29 12:58:32;;;;;;;5.10;4.60;;;;;;;;;;5073470;28;20469;-77
2022/08/29 13:00:59;;;;;;;4.43;4.13;;;;;;;;;;5073731;28;20473;-78
2022/08/29 13:03:26;;;;;;;6.30;4.73;;;;;;;;;;5073035;28;20491;-76
2022/08/29 13:06:02;;;;;;;5.50;5.00;;;;;;;;;;5072408;28;20444;-77
2022/08/29 13:08:31;;;;;;;5.10;4.67;;;;;;;;;;5073676;28;20425;-77
2022/08/29 13:11:01;;;;;;;5.40;4.90;;;;;;;;;;5070593;28;20468;-76
2022/08/29 13:13:28;;;;;;;4.83;4.33;;;;;;;;;;5067904;28;20445;-76
2022/08/29 13:15:57;;;;;;;4.70;4.40;;;;;;;;;;5071831;28;20469;-78
2022/08/29 13:18:24;;;;;;;5.30;4.90;;;;;;;;;;5065082;28;20943;-76
2022/08/29 13:21:03;;;;;;;4.87;4.37;;;;;;;;;;5062629;28;20521;-76
2022/08/29 13:23:31;;;;;;;4.50;4.10;;;;;;;;;;5057151;28;20440;-77
2022/08/29 13:26:02;;;;;;;5.27;4.70;;;;;;;;;;5061765;28;20466;-76
2022/08/29 13:28:41;;;;;;;5.03;4.17;;;;;;;;;;5059315;28;20484;-76
2022/08/29 13:31:21;;;;;;;4.60;4.20;;;;;;;;;;5058535;28;20515;-77
2022/08/29 13:34:03;;;;;;;5.77;4.60;;;;;;;;;;5053641;28;20445;-77
2022/08/29 13:36:31;;;;;;;5.80;4.23;;;;;;;;;;5053966;28;21196;-76
2022/08/29 13:39:16;;;;;;;5.13;4.83;;;;;;;;;;5054117;28;20473;-76
2022/08/29 13:41:45;;;;;;;5.13;4.73;;;;;;;;;;5053953;28;21014;-75
2022/08/29 13:44:16;;;;;;;5.40;5.00;;;;;;;;;;5053615;28;20495;-76
2022/08/29 13:46:45;;;;;;;5.50;5.10;;;;;;;;;;5053647;28;20988;-75
2022/08/29 13:49:18;;;;;;;5.23;4.93;;;;;;;;;;5053728;28;20441;-76
2022/08/29 13:51:45;;;;;;;4.70;4.40;;;;;;;;;;5054020;28;20446;-77
2022/08/29 13:54:12;;;;;;;5.33;4.40;;;;;;;;;;5053290;28;20705;-76
2022/08/29 13:56:40;;;;;;;4.73;4.43;;;;;;;;;;5053562;28;20548;-78
2022/08/29 13:59:10;;;;;;;7.10;4.33;;;;;;;;;;5053440;28;20450;-76
2022/08/29 14:01:37;;;;;;;5.30;4.60;;;;;;;;;;5053514;28;20464;-76
2022/08/29 14:04:04;;;;;;;6.40;4.80;;;;;;;;;;5052857;28;20499;-77
2022/08/29 14:06:31;;;;;;;5.53;5.03;;;;;;;;;;5053055;28;20485;-76
2022/08/29 14:08:59;;;;;;;4.73;4.33;;;;;;;;;;5052513;28;20453;-76
2022/08/29 14:11:27;;;;;;;5.30;4.47;;;;;;;;;;5052565;28;20446;-76
2022/08/29 14:13:54;;;;;;;7.20;4.73;;;;;;;;;;5052047;28;20456;-77
2022/08/29 14:16:23;;;;;;;5.27;4.77;;;;;;;;;;5052469;28;20531;-77
2022/08/29 14:18:52;;;;;;;6.20;4.80;;;;;;;;;;5054649;28;20499;-75
2022/08/29 14:21:19;;;;;;;5.80;5.27;;;;;;;;;;5058722;28;20446;-77
2022/08/29 14:23:47;;;;;;;4.63;4.20;;;;;;;;;;5059491;28;20549;-77
2022/08/29 14:26:14;;;;;;;7.70;4.60;;;;;;;;;;5057828;28;20484;-77
2022/08/29 14:28:42;;;;;;;5.50;5.10;;;;;;;;;;5052635;28;20446;-77
2022/08/29 14:31:09;;;;;;;5.40;4.30;;;;;;;;;;5052468;28;20449;-76
2022/08/29 14:33:38;;;;;;;5.00;4.70;;;;;;;;;;5052054;28;20515;-78
2022/08/29 14:36:05;;;;;;;4.67;4.27;;;;;;;;;;5052517;28;20476;-76
2022/08/29 14:38:32;;;;;;;4.97;4.67;;;;;;;;;;5055258;28;20468;-78
2022/08/29 14:40:59;;;;;;;5.63;5.17;;;;;;;;;;5067835;28;20484;-77
2022/08/29 14:43:26;;;;;;;4.80;4.50;;;;;;;;;;5069648;28;20446;-77
2022/08/29 14:45:53;;;;;;;5.03;4.47;;;;;;;;;;5068975;28;20551;-76
2022/08/29 14:48:20;;;;;;;5.57;4.10;;;;;;;;;;5063930;28;20958;-77
2022/08/29 14:50:49;;;;;;;4.77;4.37;;;;;;;;;;5052438;28;20511;-77
2022/08/29 14:53:16;;;;;;;4.63;4.33;;;;;;;;;;5052023;28;20945;-77
2022/08/29 14:55:43;;;;;;;5.30;4.80;;;;;;;;;;5052258;28;20449;-76